Air Navigation Services of Czech Republic  
Last data update:  15.10.2019 19:10:29 UTC Česká verze
   METEO Page displayed:  15.10.2019 19:10:42 UTC  
help
METAR EDDB 151850Z 10003KT 060V140 CAVOK 14/13 Q1005 NOSIG=
METAR EDDC 151850Z 16012KT CAVOK 14/10 Q1005 NOSIG=
METAR EDDE 151850Z 22002KT CAVOK 17/13 Q1005 NOSIG=
METAR EDDF 151850Z 21009KT 9999 -RA BKN039 14/13 Q1009 NOSIG=
METAR EDDM 151850Z 27010KT 9999 -RA BKN022 16/12 Q1008 NOSIG=
METAR EDDN 151850Z 25007KT 9999 -RA BKN017 OVC019 16/14 Q1007 TEMPO BKN012=
METAR EDDP 151850Z 11008KT CAVOK 14/12 Q1005 NOSIG=
METAR EDDT 151850Z 06002KT CAVOK 15/14 Q1005 NOSIG=
METAR EDQM 151750Z 16005KT 120V210 5000 BR NSC 11/10 Q1007=
METAR EPBY 151900Z 13005KT 100V160 CAVOK 14/13 Q1007=
METAR EPGD 151900Z 16002KT 9000 NSC 14/12 Q1008=
METAR EPKK 151900Z 06004KT CAVOK 13/11 Q1010=
METAR EPKT 151900Z 17009KT CAVOK 17/08 Q1010=
METAR EPLL 151900Z VRB02KT CAVOK 14/11 Q1009=
METAR EPPO 151900Z 12004KT CAVOK 14/11 Q1006=
METAR EPRZ 151900Z 11009KT CAVOK 17/09 Q1013=
METAR EPWA 151900Z 13009KT CAVOK 17/12 Q1010 NOSIG=
METAR EPWR 151900Z 14005KT 120V190 CAVOK 16/11 Q1007=
METAR LHBP 151900Z 11005KT CAVOK 14/13 Q1014 NOSIG=
METAR LHSM 151845Z AUTO 19006KT 9000 NCD 15/13 Q1013=
SPECI LKBC 151904Z AUTO VRB01KT 0500 FG NCD 08/07 Q1007=
METAR LKCV 151900Z 17003KT CAVOK 12/10 Q1007 NOSIG RMK BLU BLU=
METAR LKKB 151900Z VRB02KT CAVOK 10/10 Q1007 NOSIG RMK BLU BLU=
METAR LKKU NIL
METAR LKKV 151900Z VRB02KT 9000 OVC008 11/10 Q1008 RMK REG QNH 1005=
METAR LKLN 151900Z AUTO VRB01KT 4300 BR FEW017 11/11 Q1007=
METAR LKMT 151900Z 19009KT 160V240 CAVOK 20/09 Q1009 NOSIG RMK REG QNH 1005=
METAR LKNA 151900Z 13012KT CAVOK 15/12 Q1008 NOSIG RMK BLU BLU=
METAR LKPD 151900Z 09004KT CAVOK 13/11 Q1007 NOSIG RMK BLU BLU=
METAR LKPJ 151900Z AUTO 14005KT CAVOK ///// Q////=
METAR LKPR 151900Z VRB01KT CAVOK 10/09 Q1007 NOSIG RMK REG QNH 1005=
METAR LKTB 151900Z 13012KT CAVOK 18/13 Q1008 NOSIG RMK REG QNH 1005=
METAR LKVO NIL
METAR LOWI 151850Z 15011KT 110V180 9999 FEW050 BKN080 18/09 Q1009 WS ALL RWY BECMG 27010KT=
METAR LOWL 151850Z 01003KT 3000 BR OVC002 12/12 Q1008 TEMPO 2000 OVC003=
METAR LOWS 151850Z 31010KT 270V340 CAVOK 14/12 Q1007 NOSIG=
METAR LOWW 151850Z 16018KT CAVOK 18/12 Q1008 NOSIG=
METAR LZIB 151900Z 14016KT CAVOK 19/13 Q1010=
METAR LZKZ 151900Z 30003KT CAVOK 12/10 Q1015=
METAR LZMC 151800Z 15020G30KT CAVOK 19/12 Q1009=
METAR LZPP 151900Z 14015KT CAVOK 19/10 Q1011=
METAR LZSL 151900Z VRB02KT CAVOK 13/09 Q1014=
METAR LZTT 151900Z 21009KT 170V230 CAVOK 14/09 Q1015=
METAR LZZI 151900Z 18006KT 130V280 CAVOK 19/09 Q1012=